Country
Station

 

Weather  for  Minsk  -  Belarus    Belarus

  
9 °C (48 °F)
    
 
 

Current METAR for Minsk is :

UMMS 181000Z 29008G11MPS 9999 -SHRA BKN016CB 09/05 Q1001 R31R/290057 R31L/190055 NOSIG

 

This is a report for Minsk - Belarus.
 
The report was made 13 minutes ago, at 10:00 UTC .
The wind was blowing at a speed of 8 meters per second (17.9 miles per hour) with gusts up to 11 meters per second (24.6 miles per hour) from west/northwest (290°).
 
The temperature was 9 °C (48 °F), with a dew-point at 5 °C (41 °F).
The atmospheric pressure was 1001 hPa (29.56 inHg).
The relative humidity was 76.0%.
 
There were broken cumulonimbus clouds at a height of 488 meters (1600 feet).
 
The overall visibility was greater than 10 kilometers (6.2 miles).
 
Currently showers of light rain.

 
 
 
 

Country :   A   B   C   D   E   F   G   H   I   J   K   L   M   N   O   P   Q   R   S   T   U   V   W   Y   Z

 

Site Info  |  Disclaimer  |  Credits  |  Privacy
Contact us  |  Add to favorites
© 2013-2019 METARs - All rights reserved